Time;durP1;ratioP1;P1;durP2;ratioP2;P2;SDS_P1;SDS_P2;PMS_P1;PMS_P2;Temp;Humidity;BMP_temperature;BMP_pressure;BME280_temperature;BME280_humidity;BME280_pressure;Samples;Min_cycle;Max_cycle;Signal;HPM_P1;HPM_P2
2021/11/13 00:02:08;;;;;;;5.47;1.90;;;;;;;5.07;72.65;99299.50;4954210;28;20050;-80
2021/11/13 00:04:34;;;;;;;4.05;1.70;;;;;;;5.01;71.93;99296.34;4921431;28;20499;-77
2021/11/13 00:07:00;;;;;;;3.90;1.75;;;;;;;4.98;72.83;99304.34;4954091;28;20055;-77
2021/11/13 00:09:26;;;;;;;2.90;1.63;;;;;;;4.94;72.79;99300.25;4938514;28;20087;-76
2021/11/13 00:11:52;;;;;;;2.88;1.33;;;;;;;4.99;72.88;99313.91;4940029;28;20043;-80
2021/11/13 00:14:19;;;;;;;2.72;1.38;;;;;;;5.04;73.38;99326.75;4936841;29;20050;-79
2021/11/13 00:16:45;;;;;;;4.05;1.70;;;;;;;5.04;73.18;99312.81;4941922;28;20039;-80
2021/11/13 00:19:11;;;;;;;3.55;1.58;;;;;;;4.91;73.48;99318.78;4917979;29;20099;-80
2021/11/13 00:21:38;;;;;;;2.70;1.27;;;;;;;4.85;74.08;99319.97;4948523;29;20074;-79
2021/11/13 00:24:04;;;;;;;2.42;1.35;;;;;;;4.89;73.45;99323.28;4936753;29;20054;-78
2021/11/13 00:26:30;;;;;;;3.10;1.48;;;;;;;4.90;73.21;99332.81;4936748;29;20050;-77
2021/11/13 00:28:57;;;;;;;1.88;1.08;;;;;;;4.95;73.20;99333.38;4938917;28;20032;-77
2021/11/13 00:31:23;;;;;;;3.78;1.75;;;;;;;4.85;73.90;99335.72;4972204;28;20146;-78
2021/11/13 00:33:49;;;;;;;3.95;1.88;;;;;;;4.89;73.55;99336.38;4938722;29;20126;-78
2021/11/13 00:36:15;;;;;;;3.50;1.60;;;;;;;4.86;73.68;99336.56;4954152;28;20043;-75
2021/11/13 00:38:42;;;;;;;2.83;1.80;;;;;;;4.82;73.75;99338.53;4939406;28;20050;-77
2021/11/13 00:41:09;;;;;;;2.55;1.40;;;;;;;4.84;73.65;99356.75;4964655;28;20043;-77
2021/11/13 00:43:35;;;;;;;2.42;1.58;;;;;;;4.88;73.42;99347.78;4952705;28;20530;-76
2021/11/13 00:46:01;;;;;;;2.00;1.20;;;;;;;4.82;73.44;99361.25;4937145;29;20039;-79
2021/11/13 00:48:27;;;;;;;3.13;1.60;;;;;;;4.82;73.67;99361.25;4936724;29;20126;-79
2021/11/13 00:50:53;;;;;;;3.20;1.40;;;;;;;4.77;73.33;99368.53;4938071;28;20102;-82
2021/11/13 00:53:19;;;;;;;2.33;1.40;;;;;;;4.82;73.68;99371.72;4936952;29;20047;-78
2021/11/13 00:55:45;;;;;;;3.70;1.40;;;;;;;4.89;73.33;99382.72;4951657;28;20613;-76
2021/11/13 00:58:11;;;;;;;2.60;1.40;;;;;;;4.86;73.07;99387.19;4950733;28;20070;-77
2021/11/13 01:00:38;;;;;;;2.40;0.98;;;;;;;4.86;73.13;99379.31;4909102;29;20049;-78
2021/11/13 01:03:04;;;;;;;2.22;1.33;;;;;;;4.86;73.24;99388.97;4953156;28;20098;-78
2021/11/13 01:05:31;;;;;;;3.10;1.35;;;;;;;4.91;73.15;99392.16;4946796;29;20444;-78
2021/11/13 01:07:57;;;;;;;3.00;1.33;;;;;;;4.93;73.01;99379.78;4919632;28;20043;-78
2021/11/13 01:10:23;;;;;;;2.20;1.33;;;;;;;4.99;73.02;99394.31;4952323;28;20279;-77
2021/11/13 01:12:49;;;;;;;2.70;1.10;;;;;;;4.97;72.92;99402.28;4952947;28;20057;-75
2021/11/13 01:15:17;;;;;;;4.32;1.50;;;;;;;4.95;73.20;99398.91;4953248;28;20053;-78
2021/11/13 01:17:43;;;;;;;56.05;20.85;;;;;;;4.99;73.16;99407.44;4952761;29;20047;-75
2021/11/13 01:20:12;;;;;;;5.00;1.95;;;;;;;4.92;72.78;99409.56;4953540;28;20050;-75
2021/11/13 01:22:37;;;;;;;;;;;;;;;5.00;72.82;99406.50;4938762;28;20043;-78
2021/11/13 01:25:04;;;;;;;4.22;2.00;;;;;;;4.99;73.08;99420.53;4948804;29;20331;-78
2021/11/13 01:27:30;;;;;;;2.78;1.17;;;;;;;5.01;72.50;99414.28;4952421;29;20137;-76
2021/11/13 01:29:56;;;;;;;1.88;0.98;;;;;;;4.99;72.11;99415.28;4931938;29;20142;-77
2021/11/13 01:32:26;;;;;;;3.72;1.33;;;;;;;5.04;71.86;99423.72;4933170;28;20130;-79
2021/11/13 01:34:52;;;;;;;2.63;1.05;;;;;;;5.01;72.11;99424.75;4951231;29;20039;-77
2021/11/13 01:37:18;;;;;;;2.33;1.20;;;;;;;5.01;71.48;99430.00;4957017;28;20094;-76
2021/11/13 01:39:44;;;;;;;2.50;1.00;;;;;;;5.00;71.33;99437.97;4953176;28;20071;-80
2021/11/13 01:42:10;;;;;;;3.13;1.20;;;;;;;5.01;71.01;99430.00;4935726;29;20038;-77
2021/11/13 01:44:38;;;;;;;2.08;1.38;;;;;;;5.05;70.71;99440.28;4951040;29;20043;-76
2021/11/13 01:47:05;;;;;;;3.90;1.20;;;;;;;4.98;70.90;99435.41;4967324;28;20065;-76
2021/11/13 01:49:34;;;;;;;3.65;1.10;;;;;;;4.97;70.75;99445.97;4950740;28;20135;-78
2021/11/13 01:52:06;;;;;;;3.40;1.40;;;;;;;5.04;71.08;99455.19;4953365;29;20109;-77
2021/11/13 01:54:36;;;;;;;2.63;1.40;;;;;;;5.02;70.42;99452.66;4952556;28;20129;-77
2021/11/13 01:57:07;;;;;;;2.92;1.30;;;;;;;5.06;70.52;99449.84;4932233;29;20075;-80
2021/11/13 01:59:33;;;;;;;3.58;1.70;;;;;;;4.98;70.21;99458.16;4934785;29;20398;-76
2021/11/13 02:01:59;;;;;;;3.65;1.58;;;;;;;4.96;70.10;99467.88;4950739;28;20086;-76
2021/11/13 02:04:25;;;;;;;4.03;1.60;;;;;;;4.90;70.35;99469.09;4951220;28;20051;-76
2021/11/13 02:06:51;;;;;;;3.40;1.58;;;;;;;4.89;70.27;99474.41;4944563;28;20104;-78
2021/11/13 02:09:17;;;;;;;5.78;1.40;;;;;;;4.89;70.12;99477.88;4946907;28;20066;-78
2021/11/13 02:11:42;;;;;;;1.50;1.00;;;;;;;4.92;69.73;99482.09;4952230;29;20035;-76
2021/11/13 02:14:08;;;;;;;3.38;1.20;;;;;;;4.85;69.43;99486.84;4953957;28;20069;-76
2021/11/13 02:16:34;;;;;;;3.40;1.10;;;;;;;4.89;69.05;99501.47;4960247;28;20043;-79
2021/11/13 02:19:06;;;;;;;2.20;1.20;;;;;;;4.89;69.89;99503.25;4952214;28;20035;-80
2021/11/13 02:21:32;;;;;;;1.80;0.93;;;;;;;4.83;69.68;99499.19;4936405;29;20047;-77
2021/11/13 02:23:58;;;;;;;2.17;1.23;;;;;;;4.93;69.99;99510.81;4959334;28;20184;-78
2021/11/13 02:26:25;;;;;;;1.98;1.10;;;;;;;4.94;70.05;99517.75;4953535;28;20053;-77
2021/11/13 02:28:54;;;;;;;2.20;1.20;;;;;;;4.95;69.69;99516.84;4953702;28;20492;-78
2021/11/13 02:31:30;;;;;;;4.63;1.42;;;;;;;4.93;69.88;99521.31;4947597;28;20059;-78
2021/11/13 02:33:56;;;;;;;2.15;1.05;;;;;;;4.96;70.22;99536.00;4970997;28;20049;-78
2021/11/13 02:36:25;;;;;;;2.22;1.30;;;;;;;4.98;70.03;99535.00;4972030;28;20109;-79
2021/11/13 02:38:55;;;;;;;5.50;1.83;;;;;;;4.98;70.35;99535.00;4942665;29;20039;-77
2021/11/13 02:41:22;;;;;;;2.45;1.27;;;;;;;4.96;70.80;99541.25;4944999;28;20045;-79
2021/11/13 02:43:51;;;;;;;5.20;1.20;;;;;;;5.04;70.36;99548.72;4937003;29;20102;-77
2021/11/13 02:46:17;;;;;;;2.47;1.42;;;;;;;4.97;70.89;99561.28;4936262;29;20035;-79
2021/11/13 02:48:43;;;;;;;2.17;1.20;;;;;;;4.95;71.35;99561.38;4966133;28;20531;-79
2021/11/13 02:51:10;;;;;;;2.25;1.10;;;;;;;4.91;71.29;99564.25;4937878;28;20066;-79
2021/11/13 02:53:37;;;;;;;3.25;1.10;;;;;;;4.98;72.22;99576.91;4950972;28;20093;-79
2021/11/13 02:56:06;;;;;;;2.63;1.30;;;;;;;4.95;71.80;99571.03;4969337;28;20042;-79
2021/11/13 02:58:34;;;;;;;5.72;1.35;;;;;;;4.92;71.91;99572.06;4935466;29;20082;-77
2021/11/13 03:01:03;;;;;;;2.55;1.30;;;;;;;4.94;72.17;99585.91;4950564;29;20043;-77
2021/11/13 03:03:29;;;;;;;1.85;1.10;;;;;;;4.88;72.33;99588.84;4959551;28;20373;-79
2021/11/13 03:05:57;;;;;;;3.00;1.20;;;;;;;4.89;72.33;99593.16;4936757;28;20043;-79
2021/11/13 03:08:25;;;;;;;3.33;1.00;;;;;;;4.82;72.24;99591.81;4940695;29;20548;-77
2021/11/13 03:10:52;;;;;;;4.28;1.63;;;;;;;4.88;72.05;99607.19;4939326;29;20497;-76
2021/11/13 03:13:18;;;;;;;3.20;1.30;;;;;;;4.94;72.68;99598.16;4965752;28;20049;-80
2021/11/13 03:15:48;;;;;;;2.38;1.20;;;;;;;4.91;72.35;99604.44;4976926;28;20050;-80
2021/11/13 03:18:14;;;;;;;1.83;1.00;;;;;;;4.89;71.92;99608.91;4964674;28;20051;-75
2021/11/13 03:20:40;;;;;;;1.55;0.98;;;;;;;4.91;71.89;99612.28;4955877;28;20046;-75
2021/11/13 03:23:07;;;;;;;4.07;1.67;;;;;;;4.95;72.14;99621.66;4955820;28;20143;-76
2021/11/13 03:25:37;;;;;;;3.33;1.17;;;;;;;4.96;71.65;99610.25;4955114;28;20054;-76
2021/11/13 03:28:05;;;;;;;2.65;1.90;;;;;;;4.84;71.95;99619.63;4962001;28;20050;-77
2021/11/13 03:30:36;;;;;;;2.40;1.40;;;;;;;4.85;72.38;99625.72;4974291;28;20058;-76
2021/11/13 03:33:02;;;;;;;3.55;1.60;;;;;;;4.81;72.23;99637.28;4969543;28;20050;-76
2021/11/13 03:35:28;;;;;;;3.00;1.88;;;;;;;4.84;72.37;99642.38;4956352;28;20039;-80
2021/11/13 03:38:00;;;;;;;5.47;2.50;;;;;;;4.82;72.16;99636.34;4959284;28;20050;-78
2021/11/13 03:40:27;;;;;;;3.17;1.77;;;;;;;4.75;72.69;99640.22;4919577;29;20046;-80
2021/11/13 03:42:53;;;;;;;2.70;1.80;;;;;;;4.80;72.33;99649.53;4952470;28;20043;-77
2021/11/13 03:45:18;;;;;;;3.85;1.70;;;;;;;4.80;72.61;99656.56;4938319;28;20050;-79
2021/11/13 03:47:44;;;;;;;2.47;1.33;;;;;;;4.85;71.96;99663.25;4952066;29;20504;-78
2021/11/13 03:50:10;;;;;;;2.47;1.42;;;;;;;4.87;71.96;99673.63;4954651;28;20043;-79
2021/11/13 03:52:36;;;;;;;4.03;2.08;;;;;;;4.90;71.72;99665.63;4936374;29;20074;-78
2021/11/13 03:55:03;;;;;;;6.53;2.20;;;;;;;4.84;71.35;99673.81;4918209;29;20152;-78
2021/11/13 03:57:28;;;;;;;2.95;1.70;;;;;;;4.88;71.86;99677.94;4925502;29;20046;-76
2021/11/13 03:59:55;;;;;;;4.57;1.65;;;;;;;4.81;71.39;99684.44;4938301;29;20050;-79
2021/11/13 04:02:21;;;;;;;5.10;2.40;;;;;;;4.73;72.57;99691.88;4956130;28;20047;-78
2021/11/13 04:04:47;;;;;;;7.85;1.95;;;;;;;4.77;72.29;99688.16;4939083;29;20466;-80
2021/11/13 04:07:13;;;;;;;6.07;2.83;;;;;;;4.77;72.46;99691.66;4941143;29;20044;-80
2021/11/13 04:09:39;;;;;;;3.65;1.90;;;;;;;4.73;72.60;99697.13;4958214;28;20118;-82
2021/11/13 04:12:06;;;;;;;5.30;2.10;;;;;;;4.66;72.34;99701.81;4939272;29;20138;-83
2021/11/13 04:14:33;;;;;;;4.40;2.28;;;;;;;4.68;72.57;99706.03;4922268;29;20098;-78
2021/11/13 04:17:04;;;;;;;3.70;2.35;;;;;;;4.68;72.90;99706.03;4956383;28;20058;-81
2021/11/13 04:19:33;;;;;;;3.40;1.52;;;;;;;4.73;72.41;99712.84;4971425;28;20054;-78
2021/11/13 04:21:58;;;;;;;4.32;2.22;;;;;;;4.79;72.58;99708.09;4926471;29;20058;-79
2021/11/13 04:24:24;;;;;;;3.33;1.85;;;;;;;4.81;72.18;99716.75;4956907;28;20074;-78
2021/11/13 04:26:50;;;;;;;2.78;1.98;;;;;;;4.70;72.27;99719.91;4938458;29;20058;-79
2021/11/13 04:29:17;;;;;;;3.90;2.13;;;;;;;4.67;72.57;99722.72;4954829;28;20055;-77
2021/11/13 04:31:43;;;;;;;7.13;2.25;;;;;;;4.63;72.34;99723.78;4937077;29;20043;-77
2021/11/13 04:34:13;;;;;;;4.18;2.10;;;;;;;4.72;72.35;99732.09;4953902;28;20051;-79
2021/11/13 04:36:44;;;;;;;5.38;2.25;;;;;;;4.63;72.27;99734.25;4954426;28;20054;-78
2021/11/13 04:39:11;;;;;;;6.15;2.58;;;;;;;4.59;72.63;99737.97;4938168;29;20054;-79
2021/11/13 04:41:39;;;;;;;5.28;2.28;;;;;;;4.57;72.23;99747.66;4954634;28;20138;-80
2021/11/13 04:44:05;;;;;;;9.48;2.25;;;;;;;4.60;72.71;99750.16;4905827;29;20051;-78
2021/11/13 04:46:33;;;;;;;3.88;1.85;;;;;;;4.65;72.17;99753.38;4945114;28;20039;-81
2021/11/13 04:48:59;;;;;;;4.53;2.63;;;;;;;4.65;72.44;99753.38;4928114;28;20050;-77
2021/11/13 04:51:26;;;;;;;3.70;2.78;;;;;;;4.70;71.76;99755.75;4958985;28;20057;-78
2021/11/13 04:53:52;;;;;;;5.18;2.30;;;;;;;4.73;70.94;99755.59;4937623;29;20051;-79
2021/11/13 04:56:18;;;;;;;3.10;1.77;;;;;;;4.74;70.92;99765.16;4922148;28;20054;-81
2021/11/13 04:58:44;;;;;;;4.88;2.33;;;;;;;4.73;71.01;99765.22;4906213;28;20054;-78
2021/11/13 05:01:10;;;;;;;4.10;2.45;;;;;;;4.70;71.21;99774.09;4962559;28;20043;-82
2021/11/13 05:03:35;;;;;;;6.53;1.98;;;;;;;4.71;71.04;99773.19;4954630;28;20047;-81
2021/11/13 05:06:01;;;;;;;6.82;2.45;;;;;;;4.72;70.89;99774.84;4925567;29;20129;-80
2021/11/13 05:08:27;;;;;;;7.45;1.95;;;;;;;4.74;70.40;99780.03;4937665;29;20055;-79
2021/11/13 05:10:54;;;;;;;5.70;2.08;;;;;;;4.68;70.51;99786.41;4937960;29;20039;-80
2021/11/13 05:13:20;;;;;;;9.57;2.90;;;;;;;4.75;70.77;99797.41;4913551;28;20052;-77
2021/11/13 05:15:46;;;;;;;3.17;1.77;;;;;;;4.74;70.56;99795.75;4944419;28;20035;-79
2021/11/13 05:18:12;;;;;;;3.85;2.00;;;;;;;4.77;70.45;99803.44;4933800;29;20043;-81
2021/11/13 05:20:38;;;;;;;5.10;2.33;;;;;;;4.78;70.11;99811.22;4937052;28;20043;-80
2021/11/13 05:23:05;;;;;;;7.00;2.28;;;;;;;4.77;70.16;99820.03;4942233;29;20183;-78
2021/11/13 05:25:31;;;;;;;5.13;2.30;;;;;;;4.72;70.55;99821.19;4949673;28;20046;-82
2021/11/13 05:27:57;;;;;;;5.45;2.22;;;;;;;4.75;70.71;99831.47;4957039;28;20504;-82
2021/11/13 05:30:24;;;;;;;3.75;2.05;;;;;;;4.78;69.95;99832.19;4955764;29;20146;-79
2021/11/13 05:32:51;;;;;;;7.15;4.95;;;;;;;4.84;69.78;99833.66;4981195;28;20049;-82
2021/11/13 05:35:18;;;;;;;8.63;2.78;;;;;;;4.84;70.59;99831.03;4948811;29;20070;-80
2021/11/13 05:37:44;;;;;;;5.80;2.53;;;;;;;4.85;70.50;99848.47;4965710;28;20063;-79
2021/11/13 05:40:11;;;;;;;7.93;2.50;;;;;;;4.73;70.17;99851.69;4943480;29;20145;-79
2021/11/13 05:42:37;;;;;;;5.75;2.40;;;;;;;4.69;70.77;99854.44;4956364;28;20042;-82
2021/11/13 05:45:07;;;;;;;4.40;2.80;;;;;;;4.71;70.49;99857.03;4970388;28;20051;-78
2021/11/13 05:47:33;;;;;;;9.68;5.10;;;;;;;4.81;70.44;99865.25;4955705;29;20047;-79
2021/11/13 05:49:59;;;;;;;4.18;2.33;;;;;;;4.81;70.26;99867.84;4938195;29;20467;-78
2021/11/13 05:52:24;;;;;;;4.47;2.42;;;;;;;4.81;70.65;99867.84;4922755;29;20118;-83
2021/11/13 05:54:50;;;;;;;3.65;2.65;;;;;;;4.88;70.42;99873.66;4956057;28;20089;-80
2021/11/13 05:57:16;;;;;;;6.18;2.85;;;;;;;4.94;70.49;99879.44;4956179;28;20047;-81
2021/11/13 05:59:42;;;;;;;4.90;2.50;;;;;;;5.00;69.65;99884.38;4937759;28;20485;-82
2021/11/13 06:02:08;;;;;;;5.28;2.63;;;;;;;5.04;69.66;99889.47;4939269;29;20501;-77
2021/11/13 06:04:34;;;;;;;5.90;2.92;;;;;;;5.04;69.68;99892.09;4921090;29;20508;-81
2021/11/13 06:06:59;;;;;;;7.28;3.05;;;;;;;5.01;69.39;99890.47;4921916;29;20098;-81
2021/11/13 06:09:26;;;;;;;11.48;3.60;;;;;;;4.96;69.36;99903.78;4959679;28;20082;-83
2021/11/13 06:11:52;;;;;;;7.30;3.72;;;;;;;5.00;69.16;99900.09;4944134;29;20456;-81
2021/11/13 06:14:18;;;;;;;9.63;3.72;;;;;;;4.98;69.53;99901.09;4956836;28;20047;-81
2021/11/13 06:16:44;;;;;;;11.65;7.28;;;;;;;4.94;69.62;99902.19;4945998;28;20064;-82
2021/11/13 06:19:10;;;;;;;5.25;2.92;;;;;;;4.90;69.95;99918.97;4965301;28;20047;-84
2021/11/13 06:21:36;;;;;;;8.18;4.13;;;;;;;5.01;69.75;99916.69;4941085;29;20074;-79
2021/11/13 06:24:02;;;;;;;4.68;2.70;;;;;;;5.01;69.84;99920.13;4964917;28;20050;-81
2021/11/13 06:26:28;;;;;;;12.55;3.50;;;;;;;5.02;69.79;99923.59;4953144;28;20054;-84
2021/11/13 06:28:54;;;;;;;10.40;3.42;;;;;;;5.06;69.62;99934.78;4947018;28;20047;-81
2021/11/13 06:31:21;;;;;;;8.25;2.33;;;;;;;5.09;68.65;99927.63;4959866;28;20169;-83
2021/11/13 06:33:47;;;;;;;6.13;2.40;;;;;;;5.08;69.56;99932.94;4939850;28;20035;-80
2021/11/13 06:36:13;;;;;;;6.18;3.35;;;;;;;5.05;69.27;99943.56;4923437;28;20066;-81
2021/11/13 06:38:39;;;;;;;5.30;2.50;;;;;;;5.05;69.67;99951.44;4941483;28;20034;-79
2021/11/13 06:41:05;;;;;;;3.47;2.47;;;;;;;5.08;69.09;99951.28;4938167;29;20473;-84
2021/11/13 06:43:31;;;;;;;6.65;3.13;;;;;;;5.04;69.19;99947.13;4949046;28;20525;-84
2021/11/13 06:45:57;;;;;;;12.77;4.57;;;;;;;4.97;69.27;99952.69;4925092;28;20047;-81
2021/11/13 06:48:24;;;;;;;7.03;3.50;;;;;;;4.94;69.66;99958.06;4960169;28;20039;-82
2021/11/13 06:50:52;;;;;;;9.57;4.32;;;;;;;4.96;69.39;99963.22;4946908;28;20034;-82
2021/11/13 06:53:19;;;;;;;12.18;4.95;;;;;;;4.96;69.00;99958.84;4942177;28;20048;-83
2021/11/13 06:55:46;;;;;;;8.35;5.05;;;;;;;5.12;69.01;99969.41;4925386;29;20050;-81
2021/11/13 06:58:12;;;;;;;11.32;4.57;;;;;;;5.16;68.75;99972.75;4912223;29;20054;-83
2021/11/13 07:00:38;;;;;;;9.05;4.05;;;;;;;5.17;68.30;99972.66;4947076;28;20046;-84
2021/11/13 07:03:04;;;;;;;6.47;3.22;;;;;;;5.14;68.54;99990.31;4955082;28;20122;-83
2021/11/13 07:05:40;;;;;;;4.47;2.65;;;;;;;5.27;68.30;99986.16;4928077;29;20505;-82
2021/11/13 07:08:09;;;;;;;6.45;2.47;;;;;;;5.37;67.45;99986.56;4946595;28;20042;-82
2021/11/13 07:10:35;;;;;;;6.35;2.45;;;;;;;5.42;67.43;99995.03;4957790;28;20055;-83
2021/11/13 07:13:01;;;;;;;5.32;2.83;;;;;;;5.44;67.87;99997.56;4927144;29;20047;-81
2021/11/13 07:15:31;;;;;;;6.75;3.50;;;;;;;5.52;67.76;99995.41;4923664;29;20477;-86
2021/11/13 07:17:59;;;;;;;8.20;3.55;;;;;;;5.53;67.09;99997.09;4918660;28;20049;-83
2021/11/13 07:20:25;;;;;;;19.15;6.05;;;;;;;5.52;67.34;99995.41;4948970;28;20050;-83
2021/11/13 07:22:52;;;;;;;6.32;2.97;;;;;;;5.46;66.97;100001.81;4922595;29;20051;-82
2021/11/13 07:25:18;;;;;;;7.68;3.17;;;;;;;5.46;67.22;100012.31;4943243;29;20077;-82
2021/11/13 07:27:46;;;;;;;5.18;2.80;;;;;;;5.44;66.98;100008.91;4939196;29;20458;-82
2021/11/13 07:30:42;;;;;;;5.18;2.40;;;;;;;5.34;67.11;100016.38;4956414;28;20051;-79
2021/11/13 07:33:09;;;;;;;7.25;3.15;;;;;;;5.38;66.67;100013.63;4942361;28;20094;-79
2021/11/13 07:35:41;;;;;;;8.88;3.70;;;;;;;5.50;66.44;100023.50;4941129;28;20039;-81
2021/11/13 07:38:07;;;;;;;8.70;3.45;;;;;;;5.53;66.58;100010.22;4939432;28;20527;-82
2021/11/13 07:40:34;;;;;;;5.03;2.90;;;;;;;5.54;66.98;100025.03;4925947;29;20047;-82
2021/11/13 07:43:00;;;;;;;6.45;3.08;;;;;;;5.54;67.18;100029.44;4960856;28;20122;-80
2021/11/13 07:45:30;;;;;;;14.02;6.03;;;;;;;5.52;66.78;100029.53;4943567;29;20527;-84
2021/11/13 07:47:59;;;;;;;12.88;5.72;;;;;;;5.54;66.97;100026.81;4940362;28;20046;-82
2021/11/13 07:50:25;;;;;;;5.65;3.20;;;;;;;5.65;66.88;100030.56;4954681;28;20536;-78
2021/11/13 07:52:51;;;;;;;7.90;3.88;;;;;;;5.79;66.55;100029.03;4937791;29;20126;-80
2021/11/13 07:55:18;;;;;;;7.78;2.83;;;;;;;5.82;66.30;100026.25;4961274;28;20043;-80
2021/11/13 07:57:45;;;;;;;6.60;2.90;;;;;;;5.77;66.52;100046.63;4938528;29;20042;-80
2021/11/13 08:00:14;;;;;;;9.00;3.10;;;;;;;5.70;66.70;100035.59;4934646;29;20046;-79
2021/11/13 08:02:41;;;;;;;13.02;5.10;;;;;;;5.82;66.26;100049.88;4923146;29;20126;-79
2021/11/13 08:05:07;;;;;;;7.93;3.90;;;;;;;5.86;65.87;100040.91;4935155;28;20054;-82
2021/11/13 08:07:34;;;;;;;9.95;3.67;;;;;;;5.90;65.92;100050.31;4943827;29;20066;-80
2021/11/13 08:10:04;;;;;;;5.97;3.03;;;;;;;5.90;66.00;100066.06;4920338;29;20138;-77
2021/11/13 08:12:32;;;;;;;8.73;3.83;;;;;;;5.81;65.43;100056.06;4947244;28;20073;-83
2021/11/13 08:14:58;;;;;;;7.30;3.08;;;;;;;5.79;65.35;100065.78;4909515;29;20327;-82
2021/11/13 08:17:24;;;;;;;8.60;3.42;;;;;;;5.78;65.86;100070.19;4935658;28;20142;-79
2021/11/13 08:19:50;;;;;;;9.25;3.22;;;;;;;5.81;65.43;100061.31;4925520;29;20067;-82
2021/11/13 08:22:16;;;;;;;8.32;3.45;;;;;;;5.94;64.53;100070.25;4909014;28;20054;-80
2021/11/13 08:24:44;;;;;;;6.78;3.03;;;;;;;5.98;64.63;100066.56;4949078;28;20038;-84
2021/11/13 08:27:10;;;;;;;6.85;2.60;;;;;;;6.03;64.58;100074.22;4940637;29;20058;-83
2021/11/13 08:29:36;;;;;;;5.38;2.83;;;;;;;6.14;64.31;100068.38;4926865;28;20054;-85
2021/11/13 08:32:04;;;;;;;5.10;2.40;;;;;;;6.06;64.17;100073.19;4924407;29;20074;-85
2021/11/13 08:34:30;;;;;;;8.48;3.22;;;;;;;6.03;64.51;100086.47;4921959;29;20039;-83
2021/11/13 08:36:57;;;;;;;4.30;2.58;;;;;;;5.94;64.38;100091.25;4906077;28;20464;-81
2021/11/13 08:39:25;;;;;;;8.65;2.40;;;;;;;5.95;63.51;100098.19;4978248;28;20051;-81
2021/11/13 08:41:51;;;;;;;5.07;2.40;;;;;;;5.98;63.94;100091.91;4963947;28;20164;-84
2021/11/13 08:44:18;;;;;;;4.65;2.55;;;;;;;5.95;63.98;100094.72;4907795;28;20067;-80
2021/11/13 08:46:44;;;;;;;8.95;3.20;;;;;;;5.97;64.12;100095.50;4922972;29;20047;-85
2021/11/13 08:49:10;;;;;;;6.10;2.42;;;;;;;6.06;63.40;100107.34;4873430;29;20142;-80
2021/11/13 08:51:36;;;;;;;6.40;2.20;;;;;;;5.90;64.14;100105.44;4916924;28;20070;-82
2021/11/13 08:54:02;;;;;;;8.02;3.50;;;;;;;6.03;63.79;100104.84;4923994;28;20500;-82
2021/11/13 08:56:31;;;;;;;8.98;3.22;;;;;;;6.17;63.87;100105.00;4937385;28;20127;-83
2021/11/13 08:58:58;;;;;;;8.77;3.55;;;;;;;6.39;62.84;100111.75;4951867;29;20083;-82
2021/11/13 09:01:39;;;;;;;7.03;2.92;;;;;;;6.42;63.23;100103.72;4938052;29;20143;-82
2021/11/13 09:04:06;;;;;;;6.53;2.65;;;;;;;6.46;62.62;100108.72;4955942;28;20045;-82
2021/11/13 09:06:32;;;;;;;4.43;2.80;;;;;;;6.53;62.76;100114.50;4951970;28;20399;-83
2021/11/13 09:09:01;;;;;;;9.50;4.43;;;;;;;6.33;62.70;100118.19;4932268;28;20037;-83
2021/11/13 09:11:31;;;;;;;10.88;4.15;;;;;;;6.29;63.00;100120.13;4969763;28;20099;-80
2021/11/13 09:14:01;;;;;;;7.93;3.03;;;;;;;6.28;63.12;100128.94;4970333;28;20048;-83
2021/11/13 09:16:27;;;;;;;4.90;2.40;;;;;;;6.23;63.38;100127.47;4940190;29;20500;-75
2021/11/13 09:18:54;;;;;;;7.97;3.72;;;;;;;6.27;63.07;100129.84;4943638;29;20046;-78
2021/11/13 09:21:21;;;;;;;5.57;3.03;;;;;;;6.29;63.18;100130.63;4932065;29;20042;-80
2021/11/13 09:23:53;;;;;;;5.03;2.72;;;;;;;6.52;63.49;100133.81;4920379;29;20392;-79
2021/11/13 09:26:19;;;;;;;6.15;2.72;;;;;;;6.67;62.59;100139.19;4927267;29;20070;-78
2021/11/13 09:28:45;;;;;;;8.13;3.03;;;;;;;6.59;62.86;100139.59;4953687;28;20127;-80
2021/11/13 09:31:16;;;;;;;10.35;3.55;;;;;;;6.35;63.21;100141.75;4946581;28;20063;-79
2021/11/13 09:33:43;;;;;;;8.40;4.35;;;;;;;6.26;62.57;100150.94;4915956;29;20070;-78
2021/11/13 09:36:17;;;;;;;11.52;5.00;;;;;;;6.16;63.72;100153.19;4953725;28;20501;-79
2021/11/13 09:38:47;;;;;;;12.00;5.10;;;;;;;6.16;64.57;100158.44;4949739;29;20196;-77
2021/11/13 09:41:19;;;;;;;15.05;7.18;;;;;;;6.26;65.05;100154.41;4928849;29;20121;-80
2021/11/13 09:43:45;;;;;;;6.68;3.88;;;;;;;6.24;64.19;100164.16;4938450;29;20047;-80
2021/11/13 09:46:12;;;;;;;9.15;4.00;;;;;;;6.23;63.92;100165.09;4955061;28;20041;-80
2021/11/13 09:48:41;;;;;;;8.73;3.97;;;;;;;6.23;64.60;100159.84;4919871;29;20035;-78
2021/11/13 09:51:11;;;;;;;8.30;3.70;;;;;;;6.29;64.94;100170.03;4953109;28;20480;-80
2021/11/13 09:53:38;;;;;;;12.43;4.53;;;;;;;6.39;63.84;100169.53;4919464;29;20098;-81
2021/11/13 09:56:04;;;;;;;11.70;4.25;;;;;;;6.45;63.79;100185.81;4934588;29;20043;-81
2021/11/13 09:58:31;;;;;;;14.18;5.97;;;;;;;6.52;63.86;100172.38;4933606;28;20042;-77
2021/11/13 10:00:59;;;;;;;14.27;4.53;;;;;;;7.11;61.92;100178.00;4936406;29;20047;-80
2021/11/13 10:03:25;;;;;;;32.05;11.82;;;;;;;7.00;61.51;100188.28;4935407;28;20046;-78
2021/11/13 10:06:03;;;;;;;23.30;8.20;;;;;;;6.96;62.15;100179.69;4935463;28;20051;-80
2021/11/13 10:08:29;;;;;;;11.98;4.32;;;;;;;6.99;61.64;100189.19;4930776;29;20031;-81
2021/11/13 10:11:02;;;;;;;15.15;5.70;;;;;;;7.02;60.61;100191.69;4951232;29;20416;-77
2021/11/13 10:13:33;;;;;;;11.07;4.90;;;;;;;6.96;61.07;100196.31;4951538;29;20150;-76
2021/11/13 10:16:28;;;;;;;12.05;4.13;;;;;;;6.71;60.38;100195.94;4933613;29;20039;-77
2021/11/13 10:18:54;;;;;;;11.57;3.53;;;;;;;6.56;61.08;100208.09;4948728;28;20047;-76
2021/11/13 10:21:29;;;;;;;6.53;2.65;;;;;;;6.62;60.51;100221.75;4959601;28;20204;-79
2021/11/13 10:24:04;;;;;;;5.22;2.63;;;;;;;6.77;60.64;100229.78;4968297;28;20055;-80
2021/11/13 10:26:35;;;;;;;6.47;4.45;;;;;;;6.88;60.32;100227.44;4940849;28;20089;-85
2021/11/13 10:29:04;;;;;;;4.68;2.90;;;;;;;6.77;60.50;100229.78;4933326;29;20039;-83
2021/11/13 10:31:37;;;;;;;7.45;3.78;;;;;;;6.86;60.73;100231.91;4938182;29;20055;-81
2021/11/13 10:34:11;;;;;;;5.97;2.97;;;;;;;6.89;60.51;100237.03;4938715;29;20035;-85
2021/11/13 10:36:48;;;;;;;7.20;3.28;;;;;;;6.88;60.65;100243.22;4943879;28;20086;-82
2021/11/13 10:39:20;;;;;;;10.93;3.75;;;;;;;6.66;61.36;100240.00;4927744;28;20043;-80
2021/11/13 10:41:52;;;;;;;24.23;10.35;;;;;;;6.71;62.15;100244.09;4960368;28;20416;-84
2021/11/13 10:45:00;;;;;;;13.23;6.88;;;;;;;6.68;62.47;100254.78;4924452;28;20126;-82
2021/11/13 10:47:53;;;;;;;129.43;47.80;;;;;;;6.73;62.63;100262.41;4927475;28;20053;-82
2021/11/13 10:50:57;;;;;;;17.20;5.65;;;;;;;6.75;62.51;100271.06;4924743;28;20035;-84
2021/11/13 10:53:54;;;;;;;25.92;9.85;;;;;;;6.54;62.52;100268.63;4913881;28;20110;-77
2021/11/13 10:57:13;;;;;;;12.45;6.07;;;;;;;6.42;62.79;100270.09;4996266;23;20059;-78
2021/11/13 11:02:34;;;;;;;7.60;3.55;;;;;;;6.36;62.28;100274.81;4956869;28;20047;-72
2021/11/13 11:05:13;;;;;;;4.90;2.92;;;;;;;6.39;62.29;100274.63;4926129;29;20043;-79
2021/11/13 11:07:40;;;;;;;7.18;3.58;;;;;;;6.44;62.28;100284.00;4964563;28;20047;-72
2021/11/13 11:10:09;;;;;;;6.95;3.60;;;;;;;6.40;62.32;100281.59;4933002;29;20058;-73
2021/11/13 11:12:36;;;;;;;15.45;5.82;;;;;;;6.53;63.08;100287.94;4950331;29;20050;-73
2021/11/13 11:15:08;;;;;;;14.82;4.78;;;;;;;6.51;62.55;100288.94;4964751;29;20126;-77
2021/11/13 11:17:34;;;;;;;19.55;7.40;;;;;;;6.39;62.62;100287.78;4951290;29;20050;-77
2021/11/13 11:20:09;;;;;;;11.20;4.30;;;;;;;6.36;62.59;100287.94;4962657;29;20045;-75
2021/11/13 11:22:35;;;;;;;175.57;55.13;;;;;;;6.30;62.34;100300.44;4931638;29;20065;-78
2021/11/13 11:25:06;;;;;;;12.23;4.88;;;;;;;6.31;61.85;100301.28;4925856;28;20035;-74
2021/11/13 11:27:35;;;;;;;4.68;2.70;;;;;;;6.46;62.24;100312.81;4916077;29;20058;-78
2021/11/13 11:30:10;;;;;;;7.38;2.40;;;;;;;6.36;61.20;100319.47;4926484;29;20075;-72
2021/11/13 11:32:47;;;;;;;7.82;2.90;;;;;;;6.45;61.20;100311.13;4974099;28;20073;-74
2021/11/13 11:35:14;;;;;;;6.97;2.60;;;;;;;6.45;60.71;100317.22;4930292;29;20054;-71
2021/11/13 11:37:44;;;;;;;5.97;2.70;;;;;;;6.53;60.70;100316.84;4945968;29;20058;-72
2021/11/13 11:40:21;;;;;;;9.63;4.88;;;;;;;6.57;60.48;100321.03;4963307;28;20051;-75
2021/11/13 11:42:49;;;;;;;19.13;6.63;;;;;;;6.47;60.27;100330.28;4972647;28;20043;-75
2021/11/13 11:45:21;;;;;;;43.15;15.55;;;;;;;6.35;61.05;100325.63;4929812;29;20065;-72